Time;durP1;ratioP1;P1;durP2;ratioP2;P2;SDS_P1;SDS_P2;PMS_P1;PMS_P2;Temp;Humidity;BMP_temperature;BMP_pressure;BME280_temperature;BME280_humidity;BME280_pressure;Samples;Min_cycle;Max_cycle;Signal;HPM_P1;HPM_P2
2022/06/29 00:00:48;;;;;;;;;;;;;;;20.78;54.92;101175.15;1721212;82;27484;-55
2022/06/29 00:03:15;;;;;;;;;;;;;;;20.84;54.73;101176.77;1716319;82;25973;-55
2022/06/29 00:05:41;;;;;;;;;;;;;;;20.86;54.95;101182.36;1728342;81;26162;-55
2022/06/29 00:08:08;;;;;;;;;;;;;;;20.89;54.63;101182.48;1721463;82;26105;-55
2022/06/29 00:10:36;;;;;;;;;;;;;;;20.88;55.40;101188.48;1715362;81;25884;-55
2022/06/29 00:13:03;;;;;;;;;;;;;;;20.82;55.02;101190.64;1710569;82;27483;-55
2022/06/29 00:15:30;;;;;;;;;;;;;;;20.79;54.97;101194.62;1711865;82;25807;-56
2022/06/29 00:17:57;;;;;;;;;;;;;;;20.78;55.26;101190.69;1729809;82;25797;-55
2022/06/29 00:20:23;;;;;;;;;;;;;;;20.78;55.41;101187.95;1719310;81;25826;-56
2022/06/29 00:22:50;;;;;;;;;;;;;;;20.77;55.32;101186.26;1722617;81;25718;-55
2022/06/29 00:25:18;;;;;;;;;;;;;;;20.76;55.53;101188.16;1713485;82;27637;-55
2022/06/29 00:27:44;;;;;;;;;;;;;;;20.75;55.61;101182.36;1727177;81;25784;-56
2022/06/29 00:30:13;;;;;;;;;;;;;;;20.72;55.54;101187.34;1722927;82;25780;-55
2022/06/29 00:32:39;;;;;;;;;;;;;;;20.70;56.57;101180.71;1719199;82;26484;-55
2022/06/29 00:35:07;;;;;;;;;;;;;;;20.64;56.46;101183.69;1720279;81;25942;-55
2022/06/29 00:37:34;;;;;;;;;;;;;;;20.56;56.37;101196.11;1721844;82;28359;-54
2022/06/29 00:40:02;;;;;;;;;;;;;;;20.48;57.79;101195.69;1717161;82;25798;-55
2022/06/29 00:42:30;;;;;;;;;;;;;;;20.42;57.04;101194.23;1735631;80;25837;-54
2022/06/29 00:44:57;;;;;;;;;;;;;;;20.41;56.87;101193.91;1751458;80;26579;-56
2022/06/29 00:47:25;;;;;;;;;;;;;;;20.41;57.26;101197.50;1726755;81;25697;-56
2022/06/29 00:49:51;;;;;;;;;;;;;;;20.36;56.88;101199.94;1724281;81;27525;-55
2022/06/29 00:52:22;;;;;;;;;;;;;;;20.31;56.85;101202.41;1709766;80;25805;-55
2022/06/29 00:55:09;;;;;;;;;;;;;;;20.28;56.64;101200.05;1726697;81;25777;-55
2022/06/29 00:57:37;;;;;;;;;;;;;;;20.26;57.18;101198.88;1715824;81;26377;-56
2022/06/29 01:00:05;;;;;;;;;;;;;;;20.25;57.09;101194.98;1724781;81;25864;-55
2022/06/29 01:02:32;;;;;;;;;;;;;;;20.27;56.87;101204.68;1732223;80;27734;-55
2022/06/29 01:05:01;;;;;;;;;;;;;;;20.27;56.84;101201.08;1722536;81;25744;-55
2022/06/29 01:07:30;;;;;;;;;;;;;;;20.27;57.74;101199.22;1733264;80;25825;-55
2022/06/29 01:09:57;;;;;;;;;;;;;;;20.20;58.47;101194.69;1730718;81;25775;-55
2022/06/29 01:12:24;;;;;;;;;;;;;;;20.11;58.26;101192.06;1738299;81;25859;-55
2022/06/29 01:14:51;;;;;;;;;;;;;;;20.06;57.78;101193.66;1727658;82;27463;-55
2022/06/29 01:17:19;;;;;;;;;;;;;;;20.01;58.00;101204.64;1742043;79;25478;-56
2022/06/29 01:19:46;;;;;;;;;;;;;;;20.01;57.98;101199.69;1728706;81;25816;-55
2022/06/29 01:22:14;;;;;;;;;;;;;;;20.01;57.85;101195.59;1728342;81;25765;-55
2022/06/29 01:24:44;;;;;;;;;;;;;;;19.96;58.98;101207.08;1729899;80;25797;-55
2022/06/29 01:27:12;;;;;;;;;;;;;;;19.85;59.80;101214.39;1729448;81;27481;-55
2022/06/29 01:29:39;;;;;;;;;;;;;;;19.79;59.00;101214.58;1735095;80;25962;-55
2022/06/29 01:32:07;;;;;;;;;;;;;;;19.79;58.88;101209.13;1708730;82;25865;-56
2022/06/29 01:34:35;;;;;;;;;;;;;;;19.80;58.83;101212.19;1728490;81;25826;-57
2022/06/29 01:37:01;;;;;;;;;;;;;;;19.81;58.57;101211.66;1736651;80;25855;-53
2022/06/29 01:39:29;;;;;;;;;;;;;;;19.81;58.68;101215.75;1738890;80;27456;-55
2022/06/29 01:41:56;;;;;;;;;;;;;;;19.80;58.48;101218.15;1719175;81;26039;-55
2022/06/29 01:44:24;;;;;;;;;;;;;;;19.76;58.25;101212.22;1697618;82;25462;-55
2022/06/29 01:46:50;;;;;;;;;;;;;;;19.75;58.41;101206.42;1723788;80;25979;-55
2022/06/29 01:49:17;;;;;;;;;;;;;;;19.71;58.75;101210.05;1745245;80;25857;-55
2022/06/29 01:51:43;;;;;;;;;;;;;;;19.69;59.09;101211.27;1726864;81;27540;-56
2022/06/29 01:54:10;;;;;;;;;;;;;;;19.67;59.21;101222.38;1694447;82;25655;-55
2022/06/29 01:56:36;;;;;;;;;;;;;;;19.63;59.70;101223.77;1708738;82;25846;-55
2022/06/29 01:59:03;;;;;;;;;;;;;;;19.60;59.81;101217.31;1718489;81;26134;-55
2022/06/29 02:01:30;;;;;;;;;;;;;;;19.62;60.61;101215.78;1727899;81;25817;-55
2022/06/29 02:03:57;;;;;;;;;;;;;;;19.52;62.11;101223.71;1718200;82;27483;-56
2022/06/29 02:06:24;;;;;;;;;;;;;;;19.42;61.65;101224.48;1726085;80;25840;-55
2022/06/29 02:08:52;;;;;;;;;;;;;;;19.41;61.43;101220.05;1725407;80;25733;-55
2022/06/29 02:11:19;;;;;;;;;;;;;;;19.45;61.03;101224.13;1716086;81;25888;-55
2022/06/29 02:13:46;;;;;;;;;;;;;;;19.48;60.83;101225.62;1727748;81;26002;-55
2022/06/29 02:16:13;;;;;;;;;;;;;;;19.50;60.79;101232.59;1731187;81;27470;-55
2022/06/29 02:18:39;;;;;;;;;;;;;;;19.50;60.88;101231.73;1731982;81;25989;-55
2022/06/29 02:21:06;;;;;;;;;;;;;;;19.50;60.80;101233.95;1729940;82;25718;-55
2022/06/29 02:23:33;;;;;;;;;;;;;;;19.52;60.44;101234.63;1716953;81;25814;-56
2022/06/29 02:25:59;;;;;;;;;;;;;;;19.50;60.57;101236.69;1724994;81;25766;-55
2022/06/29 02:28:25;;;;;;;;;;;;;;;19.48;60.39;101236.02;1724334;82;27549;-55
2022/06/29 02:36:22;;;;;;;;;;;;;;;19.54;60.15;101231.70;1721758;82;25788;-54
2022/06/29 02:38:48;;;;;;;;;;;;;;;19.54;59.89;101231.70;1714852;82;25812;-54
2022/06/29 02:41:15;;;;;;;;;;;;;;;19.57;60.07;101233.20;1730814;81;27503;-55
2022/06/29 02:43:41;;;;;;;;;;;;;;;19.59;59.91;101236.61;1692552;82;25993;-55
2022/06/29 02:46:08;;;;;;;;;;;;;;;19.63;59.62;101236.58;1699707;83;25841;-56
2022/06/29 02:48:34;;;;;;;;;;;;;;;19.64;59.72;101241.84;1695212;82;25849;-56
2022/06/29 02:51:01;;;;;;;;;;;;;;;19.67;59.59;101240.63;1688695;83;26289;-55
2022/06/29 02:53:27;;;;;;;;;;;;;;;19.68;59.72;101244.52;1720996;82;28343;-55
2022/06/29 02:55:54;;;;;;;;;;;;;;;19.64;60.14;101247.30;1724434;81;25931;-55
2022/06/29 02:58:21;;;;;;;;;;;;;;;19.61;60.85;101249.03;1723630;82;25731;-55
2022/06/29 03:00:47;;;;;;;;;;;;;;;19.56;60.87;101250.11;1724041;81;25799;-55
2022/06/29 03:03:14;;;;;;;;;;;;;;;19.53;61.05;101251.83;1717154;81;25783;-55
2022/06/29 03:05:40;;;;;;;;;;;;;;;19.52;61.05;101255.59;1715166;82;28357;-56
2022/06/29 03:08:07;;;;;;;;;;;;;;;19.53;60.83;101255.92;1718952;81;25729;-55
2022/06/29 03:10:33;;;;;;;;;;;;;;;19.58;61.14;101258.10;1677748;84;25706;-55
2022/06/29 03:13:00;;;;;;;;;;;;;;;19.54;61.02;101253.53;1719995;82;25958;-56
2022/06/29 03:15:27;;;;;;;;;;;;;;;19.52;60.81;101251.50;1721730;81;25844;-56
2022/06/29 03:17:54;;;;;;;;;;;;;;;19.52;60.75;101246.91;1718651;81;28473;-55
2022/06/29 03:20:22;;;;;;;;;;;;;;;19.51;60.50;101245.20;1716950;81;25784;-55
2022/06/29 03:22:49;;;;;;;;;;;;;;;19.55;60.72;101244.31;1720749;81;25808;-55
2022/06/29 03:25:16;;;;;;;;;;;;;;;19.59;60.30;101243.43;1724895;82;26544;-56
2022/06/29 03:27:43;;;;;;;;;;;;;;;19.61;60.22;101242.20;1722237;82;25718;-55
2022/06/29 03:30:11;;;;;;;;;;;;;;;19.68;60.28;101236.33;1727326;81;28067;-55
2022/06/29 03:32:39;;;;;;;;;;;;;;;19.76;59.79;101229.13;1719999;81;25931;-55
2022/06/29 03:35:07;;;;;;;;;;;;;;;19.83;59.57;101230.06;1724035;82;25441;-55
2022/06/29 03:37:33;;;;;;;;;;;;;;;19.89;59.28;101224.42;1719646;81;26645;-55
2022/06/29 03:40:00;;;;;;;;;;;;;;;19.97;59.05;101229.78;1719891;81;25729;-54
2022/06/29 03:42:27;;;;;;;;;;;;;;;19.98;57.87;101235.05;1733393;81;28364;-55
2022/06/29 03:44:55;;;;;;;;;;;;;;;20.01;58.00;101237.42;1750928;80;25662;-55
2022/06/29 03:47:23;;;;;;;;;;;;;;;20.07;57.78;101241.78;1738528;81;25856;-56
2022/06/29 03:49:49;;;;;;;;;;;;;;;20.04;57.18;101243.55;1718201;82;26435;-55
2022/06/29 03:52:16;;;;;;;;;;;;;;;20.04;57.14;101242.18;1709485;81;25709;-55
2022/06/29 03:54:42;;;;;;;;;;;;;;;20.09;57.12;101237.82;1688615;82;27383;-56
2022/06/29 03:57:09;;;;;;;;;;;;;;;20.17;56.61;101229.53;1701998;82;25893;-56
2022/06/29 03:59:35;;;;;;;;;;;;;;;20.24;56.45;101227.44;1710058;82;25864;-56
2022/06/29 04:02:02;;;;;;;;;;;;;;;20.30;56.19;101230.77;1729328;80;25846;-55
2022/06/29 04:04:29;;;;;;;;;;;;;;;20.35;56.14;101230.19;1723617;81;25477;-54
2022/06/29 04:06:55;;;;;;;;;;;;;;;20.37;56.00;101241.25;1725537;80;28227;-56
2022/06/29 04:09:22;;;;;;;;;;;;;;;20.41;55.84;101241.72;1731664;80;25506;-56
2022/06/29 04:11:48;;;;;;;;;;;;;;;20.46;55.70;101240.66;1731854;82;25720;-56
2022/06/29 04:14:16;;;;;;;;;;;;;;;20.53;55.55;101240.74;1723067;82;26516;-55
2022/06/29 04:16:42;;;;;;;;;;;;;;;20.59;55.34;101240.80;1718681;82;25844;-56
2022/06/29 04:19:09;;;;;;;;;;;;;;;20.61;55.04;101237.37;1733759;82;27656;-56
2022/06/29 04:21:36;;;;;;;;;;;;;;;20.66;54.65;101236.80;1724356;82;25800;-56
2022/06/29 04:24:04;;;;;;;;;;;;;;;20.69;54.43;101241.02;1722899;82;25907;-56
2022/06/29 04:26:31;;;;;;;;;;;;;;;20.76;54.22;101241.97;1720826;82;26807;-56
2022/06/29 04:28:58;;;;;;;;;;;;;;;20.77;53.82;101236.84;1726994;82;25793;-56
2022/06/29 04:31:26;;;;;;;;;;;;;;;20.80;53.74;101246.03;1723169;80;27468;-56
2022/06/29 04:33:53;;;;;;;;;;;;;;;20.83;53.74;101247.52;1717551;81;25844;-55
2022/06/29 04:36:19;;;;;;;;;;;;;;;20.87;53.70;101247.48;1738198;82;25694;-56
2022/06/29 04:38:46;;;;;;;;;;;;;;;20.97;53.41;101247.16;1730350;81;25790;-56
2022/06/29 04:41:14;;;;;;;;;;;;;;;21.00;53.37;101242.14;1735955;80;25933;-56
2022/06/29 04:43:42;;;;;;;;;;;;;;;21.02;53.43;101243.34;1715906;80;27507;-55
2022/06/29 04:46:21;;;;;;;;;;;;;;;21.09;53.38;101245.62;1743031;80;25789;-56
2022/06/29 04:48:55;;;;;;;;;;;;;;;21.14;53.47;101243.13;1749946;80;25731;-56
2022/06/29 04:51:23;;;;;;;;;;;;;;;21.19;53.40;101243.41;1737286;80;26777;-56
2022/06/29 04:53:54;;;;;;;;;;;;;;;21.31;53.43;101244.23;1708072;82;27118;-54
2022/06/29 04:56:20;;;;;;;;;;;;;;;21.37;53.29;101238.00;1701175;83;27504;-56
2022/06/29 04:58:47;;;;;;;;;;;;;;;21.45;53.15;101241.09;1718718;82;26591;-56
2022/06/29 05:01:13;;;;;;;;;;;;;;;21.53;53.09;101243.69;1719143;81;25766;-56
2022/06/29 05:03:41;;;;;;;;;;;;;;;21.57;53.21;101243.09;1731154;81;25959;-56
2022/06/29 05:06:10;;;;;;;;;;;;;;;21.68;52.88;101250.48;1730319;80;25730;-56
2022/06/29 05:08:39;;;;;;;;;;;;;;;21.72;52.84;101243.58;1701092;82;27543;-56
2022/06/29 05:11:05;;;;;;;;;;;;;;;21.80;52.76;101243.43;1735876;81;26010;-56
2022/06/29 05:13:32;;;;;;;;;;;;;;;21.85;52.33;101248.31;1724656;82;25710;-56
2022/06/29 05:15:59;;;;;;;;;;;;;;;21.88;52.06;101243.28;1728628;80;25848;-56
2022/06/29 05:18:29;;;;;;;;;;;;;;;21.95;52.17;101246.07;1725897;81;26071;-56
2022/06/29 05:20:55;;;;;;;;;;;;;;;22.04;51.45;101253.09;1734465;81;31124;-56
2022/06/29 05:23:22;;;;;;;;;;;;;;;22.14;51.60;101251.88;1718282;82;25976;-55
2022/06/29 05:25:50;;;;;;;;;;;;;;;22.26;50.93;101252.16;1728661;80;25807;-55
2022/06/29 05:28:17;;;;;;;;;;;;;;;22.38;50.62;101255.99;1737613;80;25959;-55
2022/06/29 05:30:43;;;;;;;;;;;;;;;22.46;50.45;101257.22;1728952;80;26028;-55
2022/06/29 05:33:10;;;;;;;;;;;;;;;22.56;50.43;101257.37;1731611;80;28294;-55
2022/06/29 05:35:37;;;;;;;;;;;;;;;22.62;50.50;101249.72;1730159;80;25895;-56
2022/06/29 05:38:03;;;;;;;;;;;;;;;22.70;50.26;101245.94;1736707;80;25888;-55
2022/06/29 05:40:30;;;;;;;;;;;;;;;22.77;50.27;101245.45;1740168;80;26679;-55
2022/06/29 05:42:57;;;;;;;;;;;;;;;22.82;49.34;101245.67;1709320;82;25925;-55
2022/06/29 05:45:25;;;;;;;;;;;;;;;22.89;49.17;101247.90;1719755;81;27666;-55
2022/06/29 05:47:55;;;;;;;;;;;;;;;22.98;48.77;101257.63;1696591;82;25828;-56
2022/06/29 05:50:22;;;;;;;;;;;;;;;23.09;48.81;101248.48;1714494;81;25842;-56
2022/06/29 05:52:49;;;;;;;;;;;;;;;23.20;49.05;101249.28;1720334;81;26189;-56
2022/06/29 05:55:21;;;;;;;;;;;;;;;23.30;49.09;101247.48;1725980;81;25783;-57
2022/06/29 05:57:48;;;;;;;;;;;;;;;23.40;48.86;101253.41;1717955;81;27627;-57
2022/06/29 06:00:15;;;;;;;;;;;;;;;23.50;49.01;101254.90;1703136;82;25809;-57
2022/06/29 06:02:42;;;;;;;;;;;;;;;23.58;48.55;101253.31;1709786;81;25799;-57
2022/06/29 06:05:09;;;;;;;;;;;;;;;23.67;48.46;101241.06;1731418;82;26107;-56
2022/06/29 06:07:36;;;;;;;;;;;;;;;23.77;48.55;101243.36;1714539;82;25805;-57
2022/06/29 06:10:03;;;;;;;;;;;;;;;23.86;48.36;101246.20;1729861;81;27551;-57
2022/06/29 06:12:30;;;;;;;;;;;;;;;23.95;48.13;101240.52;1721991;81;25895;-57
2022/06/29 06:14:58;;;;;;;;;;;;;;;24.03;48.11;101233.42;1715181;80;25854;-57
2022/06/29 06:17:28;;;;;;;;;;;;;;;24.14;47.91;101242.93;1714514;81;25877;-57
2022/06/29 06:19:55;;;;;;;;;;;;;;;24.25;47.87;101237.28;1718251;81;25427;-57
2022/06/29 06:22:22;;;;;;;;;;;;;;;24.35;47.50;101236.30;1717987;81;27462;-57
2022/06/29 06:24:50;;;;;;;;;;;;;;;24.47;47.39;101230.97;1721594;81;25817;-55
2022/06/29 06:27:17;;;;;;;;;;;;;;;24.59;47.34;101233.87;1715778;80;25889;-57
2022/06/29 06:29:45;;;;;;;;;;;;;;;24.72;47.40;101233.86;1704889;81;25890;-57
2022/06/29 06:32:12;;;;;;;;;;;;;;;24.84;46.90;101221.07;1687236;82;25780;-56
2022/06/29 06:34:39;;;;;;;;;;;;;;;24.97;46.88;101222.89;1713607;81;28458;-56
2022/06/29 06:37:06;;;;;;;;;;;;;;;25.10;46.83;101212.87;1691027;82;25765;-57
2022/06/29 06:39:33;;;;;;;;;;;;;;;25.23;46.59;101215.55;1707782;82;25722;-55
2022/06/29 06:42:00;;;;;;;;;;;;;;;25.36;46.54;101211.84;1708381;82;26702;-56
2022/06/29 06:44:36;;;;;;;;;;;;;;;25.45;46.30;101204.16;1725035;81;25787;-56
2022/06/29 06:47:03;;;;;;;;;;;;;;;25.56;46.05;101199.30;1692339;82;27860;-56
2022/06/29 06:49:30;;;;;;;;;;;;;;;25.71;45.85;101198.09;1691116;82;25675;-57
2022/06/29 06:51:57;;;;;;;;;;;;;;;25.83;45.61;101191.29;1682287;83;25835;-56
2022/06/29 06:54:23;;;;;;;;;;;;;;;25.95;45.26;101188.09;1683095;83;26380;-56
2022/06/29 06:56:50;;;;;;;;;;;;;;;26.05;45.27;101183.41;1693188;82;25823;-56
2022/06/29 06:59:16;;;;;;;;;;;;;;;26.18;45.44;101176.41;1721383;80;28441;-56
2022/06/29 07:01:43;;;;;;;;;;;;;;;26.31;44.98;101175.95;1712159;82;25981;-57
2022/06/29 07:04:09;;;;;;;;;;;;;;;26.43;44.99;101170.49;1709509;82;25789;-56
2022/06/29 07:06:36;;;;;;;;;;;;;;;26.54;44.82;101169.16;1705372;81;25832;-56
2022/06/29 07:09:03;;;;;;;;;;;;;;;26.65;44.74;101163.92;1702917;83;25766;-57
2022/06/29 07:11:30;;;;;;;;;;;;;;;26.78;44.48;101160.98;1695925;82;27475;-56
2022/06/29 07:13:57;;;;;;;;;;;;;;;26.91;44.57;101154.97;1717040;81;25896;-56
2022/06/29 07:16:23;;;;;;;;;;;;;;;27.03;44.76;101157.20;1720534;80;25823;-56
2022/06/29 07:18:50;;;;;;;;;;;;;;;27.16;44.62;101156.17;1719232;81;25808;-56
2022/06/29 07:21:17;;;;;;;;;;;;;;;27.29;44.31;101158.69;1727539;81;25776;-57
2022/06/29 07:23:44;;;;;;;;;;;;;;;27.43;43.97;101155.73;1729824;81;27607;-55
2022/06/29 07:26:12;;;;;;;;;;;;;;;27.54;42.98;101149.91;1716424;82;25710;-55
2022/06/29 07:28:39;;;;;;;;;;;;;;;27.67;43.09;101152.41;1726054;81;25808;-56
2022/06/29 07:31:06;;;;;;;;;;;;;;;27.78;43.30;101140.50;1737618;80;25867;-57
2022/06/29 07:33:34;;;;;;;;;;;;;;;27.90;41.48;101142.41;1715391;80;25574;-57
2022/06/29 07:36:00;;;;;;;;;;;;;;;28.08;41.76;101138.13;1719484;81;27576;-57
2022/06/29 07:38:27;;;;;;;;;;;;;;;28.24;40.49;101139.27;1685969;82;25918;-57
2022/06/29 07:40:53;;;;;;;;;;;;;;;28.39;41.12;101131.81;1693457;82;25853;-56
2022/06/29 07:43:19;;;;;;;;;;;;;;;28.50;41.11;101123.19;1694927;81;26646;-57
2022/06/29 07:45:47;;;;;;;;;;;;;;;28.62;40.75;101128.66;1711617;80;25738;-57
2022/06/29 07:48:14;;;;;;;;;;;;;;;28.73;40.71;101117.25;1710725;81;27446;-57
2022/06/29 07:50:40;;;;;;;;;;;;;;;28.80;40.54;101122.06;1720954;80;26739;-57
2022/06/29 07:53:07;;;;;;;;;;;;;;;28.92;40.14;101127.53;1715680;81;25856;-57
2022/06/29 07:55:33;;;;;;;;;;;;;;;29.00;39.59;101120.74;1733779;80;26019;-56
2022/06/29 07:58:00;;;;;;;;;;;;;;;29.11;40.03;101118.45;1732407;81;25753;-56
2022/06/29 08:00:26;;;;;;;;;;;;;;;29.20;40.14;101112.77;1743835;81;27526;-57
2022/06/29 08:02:52;;;;;;;;;;;;;;;29.30;38.91;101112.08;1717369;81;25881;-57
2022/06/29 08:05:20;;;;;;;;;;;;;;;29.39;39.88;101104.75;1736343;81;25871;-56
2022/06/29 08:07:47;;;;;;;;;;;;;;;29.50;39.62;101103.25;1718976;81;26631;-57
2022/06/29 08:10:13;;;;;;;;;;;;;;;29.69;39.12;101109.88;1719245;82;25661;-56
2022/06/29 08:12:40;;;;;;;;;;;;;;;29.86;38.78;101104.29;1714055;82;27646;-57
2022/06/29 08:15:07;;;;;;;;;;;;;;;29.97;38.61;101103.36;1709211;82;25839;-56
2022/06/29 08:17:34;;;;;;;;;;;;;;;30.06;38.32;101104.28;1698709;83;25790;-57
2022/06/29 08:20:03;;;;;;;;;;;;;;;30.18;38.57;101098.02;1697742;83;25966;-56
2022/06/29 08:22:31;;;;;;;;;;;;;;;30.37;38.41;101099.06;1696005;82;25873;-57
2022/06/29 08:24:57;;;;;;;;;;;;;;;30.51;38.08;101094.78;1720629;81;27549;-56
2022/06/29 08:27:24;;;;;;;;;;;;;;;30.62;38.63;101101.29;1716733;81;25737;-56
2022/06/29 08:29:50;;;;;;;;;;;;;;;30.72;38.23;101100.00;1725129;81;25905;-56
2022/06/29 08:32:17;;;;;;;;;;;;;;;30.82;36.67;101092.30;1712564;82;25784;-56
2022/06/29 08:34:44;;;;;;;;;;;;;;;30.86;36.82;101092.06;1721677;81;25754;-56
2022/06/29 08:37:10;;;;;;;;;;;;;;;30.93;37.31;101094.59;1731968;80;26926;-56
2022/06/29 08:39:37;;;;;;;;;;;;;;;31.04;36.85;101096.92;1730025;80;25853;-56
2022/06/29 08:42:05;;;;;;;;;;;;;;;31.14;36.79;101100.34;1717048;81;25858;-56
2022/06/29 08:44:36;;;;;;;;;;;;;;;31.31;34.88;101100.20;1716712;82;25831;-56
2022/06/29 08:47:04;;;;;;;;;;;;;;;31.41;35.59;101095.23;1707920;81;25962;-57
2022/06/29 08:49:32;;;;;;;;;;;;;;;31.49;35.75;101085.85;1719948;80;27546;-56
2022/06/29 08:51:59;;;;;;;;;;;;;;;31.58;35.44;101088.94;1728843;81;26845;-56
2022/06/29 08:54:26;;;;;;;;;;;;;;;31.66;35.35;101084.81;1730004;81;25906;-57
2022/06/29 08:56:58;;;;;;;;;;;;;;;31.82;35.46;101084.37;1717599;81;26411;-56
2022/06/29 08:59:25;;;;;;;;;;;;;;;31.96;35.53;101084.70;1720021;82;25763;-57
2022/06/29 09:01:51;;;;;;;;;;;;;;;32.13;34.43;101081.14;1721800;82;27474;-56
2022/06/29 09:04:21;;;;;;;;;;;;;;;32.30;33.83;101075.91;1714248;81;25701;-56
2022/06/29 09:06:51;;;;;;;;;;;;;;;32.45;34.04;101069.53;1712435;81;25657;-56
2022/06/29 09:09:17;;;;;;;;;;;;;;;32.62;34.36;101067.86;1713781;81;26772;-56
2022/06/29 09:11:44;;;;;;;;;;;;;;;32.82;32.99;101067.04;1721832;80;26060;-56
2022/06/29 09:14:14;;;;;;;;;;;;;;;32.99;33.53;101060.36;1721622;81;27484;-56
2022/06/29 09:16:56;;;;;;;;;;;;;;;33.17;32.92;101070.07;1719775;82;25744;-56
2022/06/29 09:19:25;;;;;;;;;;;;;;;33.32;33.07;101067.27;1705741;82;25516;-56
2022/06/29 09:21:55;;;;;;;;;;;;;;;33.57;31.56;101064.69;1715071;81;25814;-57
2022/06/29 09:24:25;;;;;;;;;;;;;;;33.73;32.62;101058.50;1723128;81;25750;-56
2022/06/29 09:26:54;;;;;;;;;;;;;;;33.83;32.54;101052.88;1721586;81;27448;-56
2022/06/29 09:29:27;;;;;;;;;;;;;;;33.94;31.32;101055.06;1717602;81;26342;-55
2022/06/29 09:32:06;;;;;;;;;;;;;;;34.07;31.15;101051.63;1717668;81;26981;-57
2022/06/29 09:34:39;;;;;;;;;;;;;;;34.07;31.49;101053.02;1715879;82;25985;-56
2022/06/29 09:37:08;;;;;;;;;;;;;;;34.10;31.06;101053.85;1718633;82;25851;-56
2022/06/29 09:39:44;;;;;;;;;;;;;;;34.42;30.43;101052.56;1721194;82;28444;-56
2022/06/29 09:42:16;;;;;;;;;;;;;;;34.85;29.60;101054.69;1712054;82;25844;-56
2022/06/29 09:44:44;;;;;;;;;;;;;;;35.35;29.05;101056.45;1747889;80;25731;-56
2022/06/29 09:47:19;;;;;;;;;;;;;;;35.72;28.61;101045.12;1737987;80;25852;-56
2022/06/29 09:49:44;;;;;;;;;;;;;;;36.17;27.31;101051.78;1720406;81;25772;-56
2022/06/29 09:52:11;;;;;;;;;;;;;;;36.57;26.05;101048.66;1710903;81;28355;-57
2022/06/29 09:54:47;;;;;;;;;;;;;;;36.84;26.44;101054.92;1699471;83;25844;-56
2022/06/29 09:57:15;;;;;;;;;;;;;;;37.15;26.81;101043.73;1719488;81;25823;-57
2022/06/29 10:02:49;;;;;;;;;;;;;;;37.88;24.65;101036.90;1719242;82;25725;-56
2022/06/29 10:05:21;;;;;;;;;;;;;;;38.32;24.92;101033.06;1729103;81;27654;-56
2022/06/29 10:07:52;;;;;;;;;;;;;;;38.76;25.25;101031.99;1738098;80;25826;-57
2022/06/29 10:10:21;;;;;;;;;;;;;;;39.14;22.74;101032.92;1723938;80;25873;-57
2022/06/29 10:13:42;;;;;;;;;;;;;;;39.17;23.70;101030.88;1720351;80;25996;-56
2022/06/29 10:16:19;;;;;;;;;;;;;;;39.30;22.79;101024.91;1719585;81;25841;-56
2022/06/29 10:18:57;;;;;;;;;;;;;;;39.64;22.48;101021.11;1723042;81;27528;-56
2022/06/29 10:21:27;;;;;;;;;;;;;;;39.97;22.30;101017.84;1725628;80;25739;-56
2022/06/29 10:23:58;;;;;;;;;;;;;;;40.46;21.48;101025.56;1729222;81;25855;-57
2022/06/29 10:26:38;;;;;;;;;;;;;;;40.82;21.16;101014.47;1723146;80;25933;-56
2022/06/29 10:29:14;;;;;;;;;;;;;;;41.25;20.74;101017.45;1733487;82;25875;-56
2022/06/29 10:31:57;;;;;;;;;;;;;;;41.87;20.41;101017.90;1706820;82;27427;-56
2022/06/29 10:34:34;;;;;;;;;;;;;;;42.29;20.17;101019.89;1716120;81;26065;-56
2022/06/29 10:37:15;;;;;;;;;;;;;;;42.14;20.23;101017.93;1741758;81;25714;-57
2022/06/29 10:39:51;;;;;;;;;;;;;;;42.36;19.43;101013.92;1719956;82;26569;-56
2022/06/29 10:45:16;;;;;;;;;;;;;;;43.26;18.04;101004.91;1729751;81;27504;-57
2022/06/29 10:47:58;;;;;;;;;;;;;;;43.77;17.86;101000.23;1745783;80;26019;-56
2022/06/29 10:50:30;;;;;;;;;;;;;;;44.06;16.99;101008.20;1747167;80;25715;-58
2022/06/29 10:53:07;;;;;;;;;;;;;;;44.23;17.25;101001.41;1734035;81;26639;-56
2022/06/29 10:55:37;;;;;;;;;;;;;;;44.55;16.82;100997.83;1737447;82;26233;-56
2022/06/29 10:58:03;;;;;;;;;;;;;;;45.03;17.22;100993.59;1731029;81;28318;-56
2022/06/29 11:00:34;;;;;;;;;;;;;;;45.40;15.23;100984.77;1728349;81;25762;-57
2022/06/29 11:03:12;;;;;;;;;;;;;;;45.44;15.16;100987.68;1722919;81;25849;-56
2022/06/29 11:13:58;;;;;;;;;;;;;;;42.76;18.35;100991.91;1713793;81;25785;-57
2022/06/29 11:16:34;;;;;;;;;;;;;;;42.23;20.08;100989.60;1720100;82;25677;-56
2022/06/29 11:19:00;;;;;;;;;;;;;;;40.97;19.56;100983.44;1725925;81;25876;-56
2022/06/29 11:21:29;;;;;;;;;;;;;;;41.00;19.69;100987.59;1723457;81;44074;-57
2022/06/29 11:24:04;;;;;;;;;;;;;;;41.69;19.58;100984.14;1727241;81;27580;-57
2022/06/29 11:26:32;;;;;;;;;;;;;;;41.53;18.77;100980.29;1722978;82;25855;-56
2022/06/29 11:28:59;;;;;;;;;;;;;;;42.16;19.32;100976.03;1711650;83;25763;-56
2022/06/29 11:31:26;;;;;;;;;;;;;;;42.72;18.11;100975.38;1714522;82;26753;-55
2022/06/29 11:33:54;;;;;;;;;;;;;;;42.19;17.57;100977.33;1723566;82;25794;-57
2022/06/29 11:36:26;;;;;;;;;;;;;;;41.90;18.97;100976.30;1735261;82;27427;-57
2022/06/29 11:38:55;;;;;;;;;;;;;;;42.84;18.10;100975.41;1734382;81;25751;-56
2022/06/29 11:41:25;;;;;;;;;;;;;;;42.96;18.20;100979.67;1720119;82;25895;-56
2022/06/29 11:44:02;;;;;;;;;;;;;;;42.24;18.11;100974.30;1715995;81;26550;-56
2022/06/29 11:46:31;;;;;;;;;;;;;;;42.51;18.66;100967.80;1747047;80;25899;-56
2022/06/29 11:51:57;;;;;;;;;;;;;;;44.33;16.92;100957.52;1762284;80;25887;-56
2022/06/29 11:54:41;;;;;;;;;;;;;;;45.12;16.10;100950.22;1745081;80;25872;-57
2022/06/29 11:57:14;;;;;;;;;;;;;;;45.53;15.62;100943.42;1741548;81;25794;-56
2022/06/29 11:59:44;;;;;;;;;;;;;;;46.01;15.95;100946.92;1733530;81;25720;-56
2022/06/29 12:02:12;;;;;;;;;;;;;;;46.61;15.22;100941.92;1743730;81;27472;-56
2022/06/29 12:04:41;;;;;;;;;;;;;;;47.19;15.19;100939.42;1735132;81;25712;-56
2022/06/29 12:07:13;;;;;;;;;;;;;;;47.77;14.46;100935.32;1727703;81;25828;-57
2022/06/29 12:09:41;;;;;;;;;;;;;;;48.07;13.79;100940.13;1734524;82;27975;-56
2022/06/29 12:12:11;;;;;;;;;;;;;;;48.40;13.74;100929.07;1730878;82;25728;-59
2022/06/29 12:14:39;;;;;;;;;;;;;;;48.87;13.97;100923.16;1721061;82;27501;-57
2022/06/29 12:17:07;;;;;;;;;;;;;;;49.38;12.70;100914.91;1720721;82;26134;-57
2022/06/29 12:19:34;;;;;;;;;;;;;;;49.59;12.31;100911.94;1723166;81;25936;-57
2022/06/29 12:22:01;;;;;;;;;;;;;;;49.88;12.39;100911.42;1735404;81;25894;-56
2022/06/29 12:24:32;;;;;;;;;;;;;;;50.21;12.48;100905.78;1744122;81;26107;-56
2022/06/29 12:26:56;;;;;;;;;;;;;;;50.66;12.71;100906.83;1743975;81;27492;-57
2022/06/29 12:29:23;;;;;;;;;;;;;;;50.96;11.46;100904.13;1745388;81;27282;-56
2022/06/29 12:31:49;;;;;;;;;;;;;;;50.96;11.03;100894.09;1743045;81;25740;-56
2022/06/29 12:34:16;;;;;;;;;;;;;;;51.20;11.60;100892.41;1719289;81;26751;-57
2022/06/29 12:36:43;;;;;;;;;;;;;;;51.19;10.77;100895.91;1736118;81;25753;-57
2022/06/29 12:39:11;;;;;;;;;;;;;;;51.06;11.57;100889.58;1730466;81;28274;-57
2022/06/29 12:41:38;;;;;;;;;;;;;;;51.22;12.01;100888.52;1743714;80;25759;-57
2022/06/29 12:44:05;;;;;;;;;;;;;;;51.40;11.24;100871.23;1745509;81;25720;-57
2022/06/29 12:46:33;;;;;;;;;;;;;;;51.27;10.54;100873.75;1738064;81;25866;-57
2022/06/29 12:49:03;;;;;;;;;;;;;;;50.00;11.53;100865.09;1713393;81;25832;-56
2022/06/29 12:51:31;;;;;;;;;;;;;;;48.67;12.18;100864.70;1727454;80;28185;-56
2022/06/29 12:53:58;;;;;;;;;;;;;;;48.49;12.16;100855.38;1722123;81;25887;-57
2022/06/29 12:56:25;;;;;;;;;;;;;;;48.53;12.50;100851.95;1730839;81;25799;-57
2022/06/29 12:58:52;;;;;;;;;;;;;;;49.02;12.64;100851.88;1728429;81;26591;-57
2022/06/29 13:01:19;;;;;;;;;;;;;;;49.50;12.30;100854.55;1731737;82;25525;-57
2022/06/29 13:03:46;;;;;;;;;;;;;;;49.63;11.82;100842.72;1732337;82;27631;-57